Terminal Aerodrome Forecast
Issued by NWS

Home | Current Version | Previous Version | Text Only | Print | Product List | Glossary On
Versions: 1 2 3 4 5 6 7 8 9 10 11 12 13 14 15 16 17
000
FTUS43 KFGF 251720
TAFDVL
TAF
KDVL 251720Z 2518/2618 31008KT P6SM BKN008
      TEMPO 2518/2521 SCT010
     FM252100 30008KT P6SM BKN040
     FM260300 32005KT P6SM BKN025
     FM260900 33010KT P6SM BKN050
     FM261300 30006KT P6SM SCT080=

USA.gov is the U.S. government's official web portal to all federal, state and local government web resources and services.